createdAt,value
2017-04-10T00:00:20.768Z,1.85
2017-04-10T00:01:20.760Z,1.77
2017-04-10T00:02:20.737Z,1.89
2017-04-10T00:03:20.722Z,1.88
2017-04-10T00:04:20.703Z,1.95
2017-04-10T00:05:20.691Z,1.85
2017-04-10T00:06:20.676Z,1.85
2017-04-10T00:07:20.358Z,1.86
2017-04-10T00:08:20.652Z,1.81
2017-04-10T00:09:20.633Z,1.81
2017-04-10T00:10:20.614Z,1.9
2017-04-10T00:11:20.598Z,1.88
2017-04-10T00:12:20.586Z,1.88
2017-04-10T00:13:20.568Z,1.82
2017-04-10T00:14:20.552Z,1.86
2017-04-10T00:15:20.540Z,1.88
2017-04-10T00:16:20.518Z,1.77
2017-04-10T00:17:20.510Z,1.85
2017-04-10T00:18:20.188Z,1.93
2017-04-10T00:19:20.472Z,1.88
2017-04-10T00:20:20.461Z,1.9
2017-04-10T00:21:20.446Z,1.92
2017-04-10T00:22:20.127Z,1.83
2017-04-10T00:23:20.417Z,1.9
2017-04-10T00:24:20.103Z,1.79
2017-04-10T00:25:20.381Z,1.83
2017-04-10T00:26:20.370Z,1.81
2017-04-10T00:27:20.354Z,1.86
2017-04-10T00:28:20.339Z,1.7
2017-04-10T00:29:20.331Z,1.77
2017-04-10T00:30:20.311Z,1.83
2017-04-10T00:31:20.295Z,1.88
2017-04-10T00:32:20.276Z,1.81
2017-04-10T00:33:20.264Z,1.75
2017-04-10T00:34:20.248Z,1.71
2017-04-10T00:35:20.230Z,1.74
2017-04-10T00:36:20.215Z,1.85
2017-04-10T00:37:20.206Z,1.89
2017-04-10T00:38:20.186Z,1.83
2017-04-10T00:39:20.176Z,1.86
2017-04-10T00:40:20.157Z,1.82
2017-04-10T00:41:20.142Z,1.74
2017-04-10T00:42:20.122Z,1.6
2017-04-10T00:43:20.113Z,1.7
2017-04-10T00:44:20.096Z,1.68
2017-04-10T00:45:20.076Z,1.75
2017-04-10T00:46:20.063Z,1.7
2017-04-10T00:47:20.046Z,1.64
2017-04-10T00:48:20.031Z,1.6
2017-04-10T00:49:20.016Z,1.77
2017-04-10T00:50:20.005Z,1.75
2017-04-10T00:51:19.990Z,1.81
2017-04-10T00:52:19.973Z,1.82
2017-04-10T00:53:19.657Z,1.85
2017-04-10T00:54:19.937Z,1.77
2017-04-10T00:55:19.923Z,1.7
2017-04-10T00:56:19.907Z,1.71
2017-04-10T00:57:19.892Z,1.74
2017-04-10T00:58:19.879Z,1.86
2017-04-10T00:59:19.866Z,1.82
2017-04-10T01:00:19.857Z,1.83
2017-04-10T01:01:19.831Z,1.85
2017-04-10T01:02:19.511Z,1.81
2017-04-10T01:03:19.503Z,1.81
2017-04-10T01:04:19.787Z,1.85
2017-04-10T01:05:19.774Z,1.79
2017-04-10T01:06:19.755Z,1.81
2017-04-10T01:07:19.745Z,2
2017-04-10T01:08:19.725Z,1.81
2017-04-10T01:09:19.713Z,1.79
2017-04-10T01:10:19.697Z,1.86
2017-04-10T01:11:19.377Z,1.74
2017-04-10T01:12:19.660Z,1.81
2017-04-10T01:13:19.651Z,1.63
2017-04-10T01:14:19.629Z,1.72
2017-04-10T01:15:19.312Z,1.6
2017-04-10T01:16:19.296Z,1.71
2017-04-10T01:17:19.593Z,1.71
2017-04-10T01:18:19.573Z,1.83
2017-04-10T01:19:19.259Z,1.74
2017-04-10T01:20:19.236Z,1.77
2017-04-10T01:21:19.525Z,1.72
2017-04-10T01:22:19.508Z,1.68
2017-04-10T01:23:19.196Z,1.77
2017-04-10T01:24:19.476Z,1.74
2017-04-10T01:25:19.461Z,1.65
2017-04-10T01:26:19.447Z,1.7
2017-04-10T01:27:19.426Z,1.7
2017-04-10T01:28:19.416Z,1.65
2017-04-10T01:29:19.101Z,1.7
2017-04-10T01:30:19.394Z,1.88
2017-04-10T01:31:19.371Z,1.7
2017-04-10T01:32:19.358Z,1.75
2017-04-10T01:33:19.341Z,1.75
2017-04-10T01:34:19.327Z,1.64
2017-04-10T01:35:19.307Z,1.54
2017-04-10T01:36:19.297Z,1.61
2017-04-10T01:37:19.278Z,1.67
2017-04-10T01:38:19.268Z,1.56
2017-04-10T01:39:19.251Z,1.63
2017-04-10T01:40:19.235Z,1.67
2017-04-10T01:41:19.219Z,1.56
2017-04-10T01:42:18.901Z,1.67
2017-04-10T01:43:19.183Z,1.6
2017-04-10T01:44:19.176Z,1.71
2017-04-10T01:45:19.163Z,1.56
2017-04-10T01:46:19.143Z,1.67
2017-04-10T01:47:19.126Z,1.77
2017-04-10T01:48:19.107Z,1.68
2017-04-10T01:49:19.099Z,1.63
2017-04-10T01:50:19.079Z,1.68
2017-04-10T01:51:19.064Z,1.6
2017-04-10T01:52:19.049Z,1.6
2017-04-10T01:53:19.030Z,1.49
2017-04-10T01:54:18.415Z,1.56
2017-04-10T01:55:19.004Z,1.64
2017-04-10T01:56:18.984Z,1.6
2017-04-10T01:57:18.975Z,1.57
2017-04-10T01:58:18.954Z,1.47
2017-04-10T01:59:18.941Z,1.52
2017-04-10T02:00:18.926Z,1.47
2017-04-10T02:01:18.903Z,1.39
2017-04-10T02:02:18.892Z,1.31
2017-04-10T02:03:18.875Z,1.34
2017-04-10T02:04:18.864Z,1.29
2017-04-10T02:05:18.546Z,1.29
2017-04-10T02:06:18.532Z,1.25
2017-04-10T02:07:18.819Z,1.21
2017-04-10T02:08:18.800Z,1.2
2017-04-10T02:09:18.785Z,1.34
2017-04-10T02:10:18.771Z,1.28
2017-04-10T02:11:18.756Z,1.21
2017-04-10T02:12:18.438Z,1.2
2017-04-10T02:13:18.735Z,1.28
2017-04-10T02:14:18.711Z,1.26
2017-04-10T02:15:18.692Z,1.26
2017-04-10T02:16:18.678Z,1.2
2017-04-10T02:17:18.660Z,1.35
2017-04-10T02:18:18.648Z,1.44
2017-04-10T02:19:18.635Z,1.31
2017-04-10T02:20:18.615Z,1.29
2017-04-10T02:21:18.606Z,1.25
2017-04-10T02:22:18.583Z,1.29
2017-04-10T02:23:18.569Z,1.36
2017-04-10T02:24:18.556Z,1.42
2017-04-10T02:25:18.536Z,1.46
2017-04-10T02:26:18.526Z,1.52
2017-04-10T02:27:18.510Z,1.43
2017-04-10T02:28:18.497Z,1.44
2017-04-10T02:29:18.483Z,1.5
2017-04-10T02:30:18.458Z,1.47
2017-04-10T02:31:18.466Z,1.49
2017-04-10T02:32:18.426Z,1.43
2017-04-10T02:33:18.116Z,1.38
2017-04-10T02:34:18.400Z,1.47
2017-04-10T02:35:18.426Z,1.35
2017-04-10T02:36:18.367Z,1.31
2017-04-10T02:37:18.353Z,1.32
2017-04-10T02:38:18.337Z,1.34
2017-04-10T02:39:18.323Z,1.17
2017-04-10T02:40:18.305Z,1.28
2017-04-10T02:41:18.289Z,1.2
2017-04-10T02:42:18.274Z,1.36
2017-04-10T02:43:18.265Z,1.32
2017-04-10T02:44:18.242Z,1.28
2017-04-10T02:45:18.232Z,1.24
2017-04-10T02:46:18.208Z,1.21
2017-04-10T02:47:18.198Z,1.31
2017-04-10T02:48:18.181Z,1.32
2017-04-10T02:49:18.169Z,1.29
2017-04-10T02:50:18.152Z,1.31
2017-04-10T02:51:18.134Z,1.21
2017-04-10T02:52:18.116Z,1.2
2017-04-10T02:53:17.804Z,1.32
2017-04-10T02:54:17.783Z,1.36
2017-04-10T02:55:18.068Z,1.38
2017-04-10T02:56:18.055Z,1.42
2017-04-10T02:57:18.043Z,1.42
2017-04-10T02:58:18.023Z,1.29
2017-04-10T02:59:18.008Z,1.32
2017-04-10T03:00:17.997Z,1.32
2017-04-10T03:01:17.975Z,1.32
2017-04-10T03:02:17.961Z,1.39
2017-04-10T03:03:17.947Z,1.34
2017-04-10T03:04:17.928Z,1.28
2017-04-10T03:05:17.914Z,1.34
2017-04-10T03:06:17.900Z,1.28
2017-04-10T03:07:17.890Z,1.26
2017-04-10T03:08:17.871Z,1.32
2017-04-10T03:09:17.855Z,1.26
2017-04-10T03:10:17.838Z,1.31
2017-04-10T03:11:17.820Z,1.35
2017-04-10T03:12:17.807Z,1.31
2017-04-10T03:13:17.788Z,1.39
2017-04-10T03:14:17.777Z,1.25
2017-04-10T03:15:17.759Z,1.24
2017-04-10T03:16:17.751Z,1.29
2017-04-10T03:17:17.430Z,1.26
2017-04-10T03:18:17.708Z,1.29
2017-04-10T03:19:17.701Z,1.25
2017-04-10T03:20:17.686Z,1.21
2017-04-10T03:21:17.677Z,1.24
2017-04-10T03:22:17.645Z,1.32
2017-04-10T03:23:17.633Z,1.25
2017-04-10T03:24:17.624Z,1.26
2017-04-10T03:25:17.603Z,1.29
2017-04-10T03:26:17.589Z,1.24
2017-04-10T03:27:17.572Z,1.25
2017-04-10T03:28:17.554Z,1.16
2017-04-10T03:29:17.539Z,1.13
2017-04-10T03:30:17.525Z,1.24
2017-04-10T03:31:17.505Z,1.2
2017-04-10T03:32:17.486Z,1.13
2017-04-10T03:33:17.474Z,1.2
2017-04-10T03:34:17.459Z,1.17
2017-04-10T03:35:17.443Z,1.26
2017-04-10T03:36:17.431Z,1.08
2017-04-10T03:37:17.416Z,1.17
2017-04-10T03:38:17.404Z,1.25
2017-04-10T03:39:17.379Z,1.08
2017-04-10T03:40:17.401Z,1.21
2017-04-10T03:41:17.350Z,1.18
2017-04-10T03:42:17.328Z,1.21
2017-04-10T03:43:17.315Z,1.21
2017-04-10T03:44:17.299Z,1.25
2017-04-10T03:45:17.281Z,1.21
2017-04-10T03:46:17.268Z,1.16
2017-04-10T03:47:17.251Z,1.25
2017-04-10T03:48:17.231Z,1.2
2017-04-10T03:49:17.219Z,1.17
2017-04-10T03:50:17.204Z,1.16
2017-04-10T03:51:17.187Z,1.18
2017-04-10T03:52:17.168Z,1.2
2017-04-10T03:53:17.189Z,1.17
2017-04-10T03:54:17.142Z,1.24
2017-04-10T03:55:17.125Z,1.18
2017-04-10T03:56:17.110Z,1.2
2017-04-10T03:57:17.091Z,1.28
2017-04-10T03:58:17.079Z,1.26
2017-04-10T03:59:17.061Z,1.26
2017-04-10T04:00:17.048Z,1.29
2017-04-10T04:01:17.030Z,1.25
2017-04-10T04:02:17.014Z,1.17
2017-04-10T04:03:17.000Z,1.2
2017-04-10T04:04:16.984Z,1.2
2017-04-10T04:05:16.969Z,1.2
2017-04-10T04:06:16.951Z,1.26
2017-04-10T04:07:16.938Z,1.26
2017-04-10T04:08:16.961Z,1.17
2017-04-10T04:09:16.900Z,1.25
2017-04-10T04:10:16.927Z,1.18
2017-04-10T04:11:16.870Z,1.14
2017-04-10T04:12:16.851Z,1.26
2017-04-10T04:13:16.844Z,1.2
2017-04-10T04:14:16.823Z,1.26
2017-04-10T04:15:16.805Z,1.2
2017-04-10T04:16:16.792Z,1.17
2017-04-10T04:17:16.778Z,1.2
2017-04-10T04:18:16.759Z,1.11
2017-04-10T04:19:16.742Z,1.1
2017-04-10T04:20:16.726Z,1.13
2017-04-10T04:21:16.712Z,1.17
2017-04-10T04:22:16.395Z,1.18
2017-04-10T04:23:16.676Z,1.24
2017-04-10T04:24:16.665Z,1.24
2017-04-10T04:25:16.649Z,1.2
2017-04-10T04:26:16.629Z,1.21
2017-04-10T04:27:16.617Z,1.17
2017-04-10T04:28:16.598Z,1.31
2017-04-10T04:29:16.587Z,1.32
2017-04-10T04:30:16.566Z,1.26
2017-04-10T04:31:16.548Z,1.18
2017-04-10T04:32:16.233Z,1.21
2017-04-10T04:33:16.219Z,1.25
2017-04-10T04:34:16.505Z,1.29
2017-04-10T04:35:16.494Z,1.31
2017-04-10T04:36:16.469Z,1.24
2017-04-10T04:37:16.456Z,1.2
2017-04-10T04:38:16.442Z,1.2
2017-04-10T04:39:16.422Z,1.18
2017-04-10T04:40:16.414Z,1.29
2017-04-10T04:41:16.393Z,1.35
2017-04-10T04:42:16.375Z,1.18
2017-04-10T04:43:16.362Z,1.2
2017-04-10T04:44:16.349Z,1.21
2017-04-10T04:45:16.329Z,1.24
2017-04-10T04:46:16.316Z,1.18
2017-04-10T04:47:16.299Z,1.2
2017-04-10T04:48:16.280Z,1.31
2017-04-10T04:49:16.273Z,1.32
2017-04-10T04:50:16.254Z,1.38
2017-04-10T04:51:16.240Z,1.42
2017-04-10T04:52:16.226Z,1.54
2017-04-10T04:53:16.209Z,1.56
2017-04-10T04:54:16.190Z,1.6
2017-04-10T04:55:16.178Z,1.64
2017-04-10T04:56:16.156Z,1.63
2017-04-10T04:57:16.174Z,1.71
2017-04-10T04:58:16.127Z,1.74
2017-04-10T04:59:16.110Z,1.65
2017-04-10T05:00:16.099Z,1.56
2017-04-10T05:01:16.078Z,1.72
2017-04-10T05:02:16.062Z,1.77
2017-04-10T05:03:16.047Z,1.75
2017-04-10T05:04:16.034Z,1.74
2017-04-10T05:05:16.019Z,1.82
2017-04-10T05:06:16.003Z,1.88
2017-04-10T05:07:15.985Z,1.88
2017-04-10T05:08:15.971Z,1.93
2017-04-10T05:09:15.957Z,1.85
2017-04-10T05:10:15.942Z,1.9
2017-04-10T05:11:15.927Z,1.95
2017-04-10T05:12:15.911Z,1.89
2017-04-10T05:13:15.892Z,1.98
2017-04-10T05:14:15.874Z,1.86
2017-04-10T05:15:15.873Z,1.79
2017-04-10T05:16:15.851Z,1.9
2017-04-10T05:17:15.836Z,1.93
2017-04-10T05:18:15.815Z,1.98
2017-04-10T05:19:15.803Z,2.12
2017-04-10T05:20:15.788Z,2.29
2017-04-10T05:21:15.781Z,2.09
2017-04-10T05:22:15.758Z,2.09
2017-04-10T05:23:15.744Z,2.22
2017-04-10T05:24:15.727Z,2.23
2017-04-10T05:25:15.711Z,2.37
2017-04-10T05:26:15.697Z,2.55
2017-04-10T05:27:15.684Z,2.62
2017-04-10T05:28:15.668Z,2.51
2017-04-10T05:29:15.649Z,2.66
2017-04-10T05:30:15.637Z,2.71
2017-04-10T05:31:15.625Z,2.65
2017-04-10T05:32:15.614Z,2.89
2017-04-10T05:33:15.592Z,2.84
2017-04-10T05:34:15.579Z,2.8
2017-04-10T05:35:15.573Z,2.73
2017-04-10T05:36:15.553Z,2.74
2017-04-10T05:37:15.535Z,2.81
2017-04-10T05:38:15.521Z,2.81
2017-04-10T05:39:15.513Z,2.9
2017-04-10T05:40:15.495Z,3.25
2017-04-10T05:41:15.474Z,3.39
2017-04-10T05:42:15.464Z,3.37
2017-04-10T05:43:15.454Z,3.41
2017-04-10T05:44:15.436Z,3.37
2017-04-10T05:45:15.425Z,3.39
2017-04-10T05:46:15.406Z,3.84
2017-04-10T05:47:15.393Z,3.93
2017-04-10T05:48:15.382Z,3.96
2017-04-10T05:49:15.363Z,4.16
2017-04-10T05:50:15.354Z,4.16
2017-04-10T05:51:15.336Z,4.38
2017-04-10T05:52:15.320Z,3.99
2017-04-10T05:53:15.318Z,4
2017-04-10T05:54:15.299Z,3.72
2017-04-10T05:55:15.285Z,3.88
2017-04-10T05:56:15.268Z,3.68
2017-04-10T05:57:15.255Z,3.96
2017-04-10T05:58:15.246Z,3.86
2017-04-10T05:59:15.228Z,3.26
2017-04-10T06:00:15.213Z,3.19
2017-04-10T06:01:14.900Z,2.86
2017-04-10T06:02:15.189Z,2.9
2017-04-10T06:03:15.176Z,2.79
2017-04-10T06:04:14.861Z,2.5
2017-04-10T06:05:15.145Z,2.71
2017-04-10T06:06:15.134Z,2.55
2017-04-10T06:07:15.125Z,2.55
2017-04-10T06:08:15.107Z,2.71
2017-04-10T06:09:15.093Z,2.77
2017-04-10T06:10:15.079Z,2.81
2017-04-10T06:11:15.064Z,2.61
2017-04-10T06:12:15.050Z,2.53
2017-04-10T06:13:15.040Z,2.45
2017-04-10T06:14:15.021Z,2.26
2017-04-10T06:15:15.007Z,2.14
2017-04-10T06:16:14.998Z,2.26
2017-04-10T06:17:14.981Z,2.18
2017-04-10T06:18:14.963Z,2.22
2017-04-10T06:19:14.950Z,2.25
2017-04-10T06:20:14.938Z,2.3
2017-04-10T06:21:14.922Z,2.2
2017-04-10T06:22:14.914Z,2.3
2017-04-10T06:23:14.890Z,2.41
2017-04-10T06:24:14.577Z,2.58
2017-04-10T06:25:14.868Z,2.62
2017-04-10T06:26:14.851Z,2.71
2017-04-10T06:27:14.837Z,2.5
2017-04-10T06:28:14.822Z,2.68
2017-04-10T06:29:14.805Z,2.9
2017-04-10T06:30:14.788Z,3.16
2017-04-10T06:31:14.795Z,3.23
2017-04-10T06:32:14.762Z,3.39
2017-04-10T06:33:14.750Z,3.41
2017-04-10T06:34:14.735Z,3.37
2017-04-10T06:35:14.719Z,3.1
2017-04-10T06:36:14.405Z,3.01
2017-04-10T06:37:14.699Z,2.76
2017-04-10T06:38:14.377Z,3.12
2017-04-10T06:39:14.367Z,3.8
2017-04-10T06:40:14.350Z,3.41
2017-04-10T06:41:14.339Z,3.7
2017-04-10T06:42:14.624Z,3.6
2017-04-10T06:43:14.620Z,3.71
2017-04-10T06:44:14.594Z,3.41
2017-04-10T06:45:14.585Z,3.41
2017-04-10T06:46:14.569Z,3.7
2017-04-10T06:47:14.558Z,4.18
2017-04-10T06:48:14.547Z,4.96
2017-04-10T06:49:14.530Z,5.55
2017-04-10T06:50:14.518Z,5.93
2017-04-10T06:51:14.502Z,5.38
2017-04-10T06:52:14.487Z,4.93
2017-04-10T06:53:14.177Z,4.69
2017-04-10T06:54:14.463Z,4.25
2017-04-10T06:55:14.451Z,3.8
2017-04-10T06:56:14.439Z,3.53
2017-04-10T06:57:14.426Z,4.62
2017-04-10T06:58:14.410Z,5.35
2017-04-10T06:59:14.400Z,5.8
2017-04-10T07:00:13.788Z,5.52
2017-04-10T07:01:14.075Z,5.67
2017-04-10T07:02:14.058Z,5.6
2017-04-10T07:03:14.053Z,4.49
2017-04-10T07:04:14.039Z,4.25
2017-04-10T07:05:14.326Z,4.32
2017-04-10T07:06:14.011Z,4.53
2017-04-10T07:07:14.337Z,4.47
2017-04-10T07:08:14.293Z,4.43
2017-04-10T07:09:14.274Z,4.43
2017-04-10T07:10:14.264Z,4.38
2017-04-10T07:11:14.245Z,4.65
2017-04-10T07:12:14.236Z,5.15
2017-04-10T07:13:14.222Z,5.75
2017-04-10T07:14:14.214Z,6.38
2017-04-10T07:15:14.397Z,6.82
2017-04-10T07:16:14.387Z,7.47
2017-04-10T07:17:14.206Z,7.94
2017-04-10T07:18:14.160Z,8.25
2017-04-10T07:19:14.143Z,7.32
2017-04-10T07:20:14.134Z,6.83
2017-04-10T07:21:14.136Z,5.99
2017-04-10T07:22:14.112Z,5.83
2017-04-10T07:23:14.103Z,5.4
2017-04-10T07:24:14.092Z,5.08
2017-04-10T07:25:14.081Z,4.69
2017-04-10T07:26:14.080Z,4.53
2017-04-10T07:27:13.754Z,4.62
2017-04-10T07:28:14.044Z,4.38
2017-04-10T07:29:14.028Z,4.28
2017-04-10T07:30:14.017Z,4.77
2017-04-10T07:31:13.702Z,5.44
2017-04-10T07:32:13.995Z,6.05
2017-04-10T07:33:13.977Z,6.11
2017-04-10T07:34:13.669Z,7.11
2017-04-10T07:35:13.960Z,7.33
2017-04-10T07:36:13.945Z,6.83
2017-04-10T07:37:13.627Z,6.54
2017-04-10T07:38:13.927Z,5.45
2017-04-10T07:39:13.910Z,4.83
2017-04-10T07:40:13.904Z,4.68
2017-04-10T07:41:13.883Z,4.17
2017-04-10T07:42:27.262Z,3.95
2017-04-10T07:43:13.868Z,4.24
2017-04-10T07:44:13.861Z,4.21
2017-04-10T07:45:13.837Z,4.21
2017-04-10T07:46:13.822Z,4.54
2017-04-10T07:47:13.810Z,4.36
2017-04-10T07:48:13.800Z,4.18
2017-04-10T07:49:13.786Z,4.11
2017-04-10T07:50:13.818Z,3.75
2017-04-10T07:51:13.964Z,4.25
2017-04-10T07:52:13.447Z,4.18
2017-04-10T07:53:13.431Z,4.18
2017-04-10T07:54:13.721Z,4.17
2017-04-10T07:55:13.709Z,4.17
2017-04-10T07:56:13.393Z,3.92
2017-04-10T07:57:13.680Z,3.57
2017-04-10T07:58:13.668Z,3.88
2017-04-10T07:59:13.653Z,3.68
2017-04-10T08:00:13.645Z,4.11
2017-04-10T08:01:13.630Z,4.35
2017-04-10T08:02:13.614Z,4.97
2017-04-10T08:03:13.598Z,4.61
2017-04-10T08:04:13.590Z,4.51
2017-04-10T08:05:13.573Z,4.99
2017-04-10T08:06:13.564Z,4.8
2017-04-10T08:07:13.550Z,4.75
2017-04-10T08:08:13.534Z,4.64
2017-04-10T08:09:13.519Z,4.75
2017-04-10T08:10:13.508Z,5.45
2017-04-10T08:11:13.532Z,5.44
2017-04-10T08:12:13.480Z,5.35
2017-04-10T08:13:13.467Z,5.77
2017-04-10T08:14:13.453Z,6.51
2017-04-10T08:15:13.441Z,6.99
2017-04-10T08:16:13.433Z,6.82
2017-04-10T08:17:26.813Z,7.11
2017-04-10T08:18:13.415Z,6.86
2017-04-10T08:19:13.399Z,6.54
2017-04-10T08:20:13.383Z,6.68
2017-04-10T08:21:13.372Z,6.57
2017-04-10T08:22:13.363Z,6.86
2017-04-10T08:23:13.349Z,7.73
2017-04-10T08:24:13.341Z,7.84
2017-04-10T08:25:13.334Z,8.25
2017-04-10T08:26:13.315Z,7.55
2017-04-10T08:27:13.511Z,6.51
2017-04-10T08:28:12.992Z,5.52
2017-04-10T08:29:13.282Z,5.78
2017-04-10T08:30:13.272Z,6.25
2017-04-10T08:31:13.260Z,7.18
2017-04-10T08:32:13.253Z,7.95
2017-04-10T08:33:13.238Z,8.58
2017-04-10T08:34:13.236Z,8.5
2017-04-10T08:35:13.220Z,8.39
2017-04-10T08:36:13.216Z,7.52
2017-04-10T08:37:13.202Z,6.55
2017-04-10T08:38:13.186Z,6.11
2017-04-10T08:39:13.174Z,6.27
2017-04-10T08:40:13.163Z,7.55
2017-04-10T08:41:13.156Z,8.37
2017-04-10T08:42:13.141Z,9.01
2017-04-10T08:43:13.133Z,8.97
2017-04-10T08:44:13.123Z,8.32
2017-04-10T08:45:13.113Z,7.32
2017-04-10T08:46:13.104Z,7.16
2017-04-10T08:47:13.091Z,6.25
2017-04-10T08:48:13.081Z,6.55
2017-04-10T08:49:13.069Z,7.47
2017-04-10T08:50:13.063Z,7.89
2017-04-10T08:51:13.051Z,8.76
2017-04-10T08:52:13.243Z,8.31
2017-04-10T08:53:13.031Z,7.74
2017-04-10T08:54:12.714Z,7.11
2017-04-10T08:55:13.011Z,7.51
2017-04-10T08:56:13.001Z,7.82
2017-04-10T08:57:12.989Z,8.43
2017-04-10T08:58:13.191Z,7.71
2017-04-10T08:59:12.970Z,7.79
2017-04-10T09:00:12.957Z,8.29
2017-04-10T09:01:12.947Z,7.42
2017-04-10T09:02:12.944Z,8.21
2017-04-10T09:03:12.930Z,7.29
2017-04-10T09:04:12.920Z,7.27
2017-04-10T09:05:12.912Z,7.09
2017-04-10T09:06:12.899Z,6.76
2017-04-10T09:07:12.888Z,6.45
2017-04-10T09:08:12.578Z,6.38
2017-04-10T09:09:12.871Z,7.67
2017-04-10T09:10:12.560Z,7.52
2017-04-10T09:11:12.846Z,7.42
2017-04-10T09:12:12.842Z,6.38
2017-04-10T09:13:12.827Z,5.73
2017-04-10T09:14:12.816Z,4.84
2017-04-10T09:15:12.504Z,5.17
2017-04-10T09:16:12.798Z,5.45
2017-04-10T09:17:12.784Z,6.32
2017-04-10T09:18:12.775Z,6.65
2017-04-10T09:19:12.761Z,6.64
2017-04-10T09:20:12.751Z,6.35
2017-04-10T09:21:12.739Z,6.93
2017-04-10T09:22:12.728Z,7.15
2017-04-10T09:23:12.717Z,6.28
2017-04-10T09:24:12.701Z,6.2
2017-04-10T09:25:12.697Z,5.38
2017-04-10T09:26:12.682Z,5.65
2017-04-10T09:27:12.668Z,5.55
2017-04-10T09:28:12.660Z,5.85
2017-04-10T09:29:12.649Z,6.51
2017-04-10T09:30:12.673Z,6.73
2017-04-10T09:31:12.628Z,6.75
2017-04-10T09:32:27.226Z,6.36
2017-04-10T09:33:12.604Z,6.17
2017-04-10T09:34:12.591Z,5.96
2017-04-10T09:35:12.279Z,6.11
2017-04-10T09:36:12.572Z,6.99
2017-04-10T09:37:12.561Z,7.27
2017-04-10T09:38:12.243Z,7.96
2017-04-10T09:39:12.536Z,8.73
2017-04-10T09:40:12.525Z,9.65
2017-04-10T09:41:12.209Z,9.6
2017-04-10T09:42:12.204Z,9.89
2017-04-10T09:43:12.192Z,10.78
2017-04-10T09:44:12.182Z,11.84
2017-04-10T09:45:12.175Z,11.28
2017-04-10T09:46:12.172Z,10.25
2017-04-10T09:47:12.151Z,9.24
2017-04-10T09:48:12.142Z,9.65
2017-04-10T09:49:12.439Z,10.26
2017-04-10T09:50:12.132Z,10.02
2017-04-10T09:51:11.816Z,10.66
2017-04-10T09:52:12.106Z,10.63
2017-04-10T09:53:12.106Z,10.46
2017-04-10T09:54:12.393Z,10.57
2017-04-10T09:55:12.384Z,10.51
2017-04-10T09:56:12.070Z,11.13
2017-04-10T09:57:12.368Z,11.23
2017-04-10T09:58:12.061Z,10.8
2017-04-10T09:59:12.352Z,10.43
2017-04-10T10:00:12.344Z,9.95
2017-04-10T10:01:12.332Z,9.38
2017-04-10T10:02:12.067Z,9.75
2017-04-10T10:03:12.013Z,9.32
2017-04-10T10:04:12.307Z,9.86
2017-04-10T10:05:12.305Z,10.81
2017-04-10T10:06:11.990Z,10.94
2017-04-10T10:07:12.287Z,11.56
2017-04-10T10:08:11.980Z,12.03
2017-04-10T10:09:12.269Z,12.16
2017-04-10T10:10:11.961Z,11.46
2017-04-10T10:11:12.253Z,11.01
2017-04-10T10:12:11.946Z,10.43
2017-04-10T10:13:11.936Z,10.07
2017-04-10T10:14:12.235Z,9.95
2017-04-10T10:15:12.227Z,9.78
2017-04-10T10:16:11.916Z,9.58
2017-04-10T10:17:11.905Z,9.38
2017-04-10T10:18:11.595Z,9.3
2017-04-10T10:19:12.187Z,9.32
2017-04-10T10:20:11.882Z,9.1
2017-04-10T10:21:11.872Z,9.3
2017-04-10T10:22:12.165Z,9.68
2017-04-10T10:23:11.859Z,10.25
2017-04-10T10:24:11.848Z,9.73
2017-04-10T10:25:11.842Z,9.48
2017-04-10T10:26:11.831Z,9.1
2017-04-10T10:27:12.127Z,8.07
2017-04-10T10:28:12.115Z,7.44
2017-04-10T10:29:12.107Z,6.79
2017-04-10T10:30:11.797Z,6.71
2017-04-10T10:31:12.091Z,6.86
2017-04-10T10:32:11.781Z,6.25
2017-04-10T10:33:12.074Z,5.8
2017-04-10T10:34:11.464Z,5.56
2017-04-10T10:35:12.053Z,5.9
2017-04-10T10:36:12.044Z,6.2
2017-04-10T10:37:11.734Z,5.69
2017-04-10T10:38:11.728Z,5.38
2017-04-10T10:39:11.412Z,5.38
2017-04-10T10:40:11.706Z,5.7
2017-04-10T10:41:12.032Z,5.87
2017-04-10T10:42:11.683Z,6.17
2017-04-10T10:43:11.671Z,6.55
2017-04-10T10:44:11.965Z,6.53
2017-04-10T10:45:11.958Z,7.04
2017-04-10T10:46:11.942Z,7.44
2017-04-10T10:47:11.631Z,7.85
2017-04-10T10:48:11.925Z,6.82
2017-04-10T10:49:11.609Z,7.16
2017-04-10T10:50:11.600Z,6.76
2017-04-10T10:51:11.592Z,7.04
2017-04-10T10:52:11.883Z,7.21
2017-04-10T10:53:11.868Z,7.32
2017-04-10T10:54:11.859Z,7.79
2017-04-10T10:55:11.553Z,8
2017-04-10T10:56:11.840Z,8.85
2017-04-10T10:57:11.533Z,9.24
2017-04-10T10:58:11.516Z,9.49
2017-04-10T10:59:11.810Z,9.63
2017-04-10T11:00:11.798Z,9.56
2017-04-10T11:01:11.785Z,9.48
2017-04-10T11:02:11.785Z,9.86
2017-04-10T11:03:11.472Z,10.52
2017-04-10T11:04:11.461Z,10.52
2017-04-10T11:05:11.754Z,10.44
2017-04-10T11:06:11.142Z,10.88
2017-04-10T11:07:11.744Z,12.21
2017-04-10T11:08:11.730Z,11.82
2017-04-10T11:09:11.722Z,11.53
2017-04-10T11:10:11.110Z,12.12
2017-04-10T11:11:11.708Z,12.81
2017-04-10T11:12:11.698Z,12.15
2017-04-10T11:13:11.385Z,11.69
2017-04-10T11:14:11.075Z,11.49
2017-04-10T11:15:11.669Z,12.07
2017-04-10T11:16:11.058Z,11.6
2017-04-10T11:17:11.657Z,11.51
2017-04-10T11:18:11.346Z,11.85
2017-04-10T11:19:11.038Z,11.59
2017-04-10T11:20:11.335Z,11.82
2017-04-10T11:21:11.327Z,12.05
2017-04-10T11:22:11.322Z,12.7
2017-04-10T11:23:11.312Z,12.13
2017-04-10T11:24:11.608Z,11.81
2017-04-10T11:25:11.296Z,11.59
2017-04-10T11:26:11.293Z,11.48
2017-04-10T11:27:10.983Z,11.13
2017-04-10T11:28:10.976Z,10.63
2017-04-10T11:29:11.272Z,10.95
2017-04-10T11:30:11.576Z,11.79
2017-04-10T11:31:10.959Z,12.76
2017-04-10T11:32:11.260Z,13.21
2017-04-10T11:33:11.552Z,13.51
2017-04-10T11:34:11.238Z,13.35
2017-04-10T11:35:11.534Z,12.43
2017-04-10T11:36:11.528Z,10.72
2017-04-10T11:37:10.920Z,10.02
2017-04-10T11:38:11.217Z,10.07
2017-04-10T11:39:10.907Z,10.58
2017-04-10T11:40:11.507Z,11.77
2017-04-10T11:41:11.194Z,12.3
2017-04-10T11:42:11.191Z,13.13
2017-04-10T11:43:11.185Z,13.73
2017-04-10T11:44:11.180Z,13.61
2017-04-10T11:45:11.473Z,13.17
2017-04-10T11:46:11.471Z,12.74
2017-04-10T11:47:11.160Z,12.56
2017-04-10T11:48:11.153Z,12.55
2017-04-10T11:49:11.148Z,12.89
2017-04-10T11:50:11.144Z,13.61
2017-04-10T11:51:11.438Z,13.65
2017-04-10T11:52:11.131Z,12.98
2017-04-10T11:53:11.430Z,12.79
2017-04-10T11:54:11.421Z,11.88
2017-04-10T11:55:11.416Z,11.13
2017-04-10T11:56:11.406Z,11.44
2017-04-10T11:57:11.416Z,10.93
2017-04-10T11:58:11.399Z,10.2
2017-04-10T11:59:11.400Z,9.24
2017-04-10T12:00:11.388Z,10.43
2017-04-10T12:01:11.380Z,11.45
2017-04-10T12:02:11.383Z,12.3
2017-04-10T12:03:11.369Z,11.57
2017-04-10T12:04:11.565Z,10.95
2017-04-10T12:05:11.357Z,10.36
2017-04-10T12:06:11.046Z,8.67
2017-04-10T12:07:11.045Z,7.84
2017-04-10T12:08:11.036Z,7.07
2017-04-10T12:09:11.027Z,7.77
2017-04-10T12:10:11.020Z,8.46
2017-04-10T12:11:11.013Z,8.71
2017-04-10T12:12:11.304Z,8.83
2017-04-10T12:13:10.996Z,8.47
2017-04-10T12:14:10.992Z,8.43
2017-04-10T12:15:11.281Z,9.15
2017-04-10T12:16:10.968Z,10.2
2017-04-10T12:17:11.266Z,9.98
2017-04-10T12:18:11.258Z,10.93
2017-04-10T12:19:10.946Z,10.72
2017-04-10T12:20:11.243Z,10.28
2017-04-10T12:21:11.237Z,10.29
2017-04-10T12:22:11.231Z,10.36
2017-04-10T12:23:10.915Z,10.22
2017-04-10T12:24:11.215Z,9.55
2017-04-10T12:25:11.203Z,7.67
2017-04-10T12:26:10.592Z,7.3
2017-04-10T12:27:11.186Z,7.09
2017-04-10T12:28:11.190Z,7
2017-04-10T12:29:10.868Z,7.08
2017-04-10T12:30:11.156Z,6.94
2017-04-10T12:31:11.160Z,6.36
2017-04-10T12:32:10.836Z,6.68
2017-04-10T12:33:11.133Z,6.79
2017-04-10T12:34:10.820Z,6.87
2017-04-10T12:35:11.117Z,7.36
2017-04-10T12:36:11.101Z,8.29
2017-04-10T12:37:10.791Z,9
2017-04-10T12:38:10.779Z,9.13
2017-04-10T12:39:10.777Z,9
2017-04-10T12:40:10.760Z,9.35
2017-04-10T12:41:11.056Z,10.07
2017-04-10T12:42:10.747Z,9.62
2017-04-10T12:43:10.737Z,9.98
2017-04-10T12:44:10.423Z,9.26
2017-04-10T12:45:11.026Z,9.96
2017-04-10T12:46:11.003Z,9.24
2017-04-10T12:47:10.708Z,9.23
2017-04-10T12:48:10.989Z,9.68
2017-04-10T12:49:10.988Z,10.49
2017-04-10T12:50:10.672Z,10.63
2017-04-10T12:51:10.669Z,10.16
2017-04-10T12:52:10.960Z,9.16
2017-04-10T12:53:10.639Z,9.26
2017-04-10T12:54:10.946Z,10.16
2017-04-10T12:55:10.631Z,10.43
2017-04-10T12:56:10.628Z,10.11
2017-04-10T12:57:10.919Z,10.34
2017-04-10T12:58:10.597Z,9.71
2017-04-10T12:59:10.897Z,10.16
2017-04-10T13:00:10.589Z,10.2
2017-04-10T13:01:10.886Z,9.6
2017-04-10T13:02:10.576Z,9.49
2017-04-10T13:03:10.568Z,9.78
2017-04-10T13:04:10.550Z,9.48
2017-04-10T13:05:10.849Z,9.2
2017-04-10T13:06:10.834Z,8.45
2017-04-10T13:07:10.518Z,9.06
2017-04-10T13:08:10.512Z,9.41
2017-04-10T13:09:10.501Z,9.86
2017-04-10T13:10:10.799Z,10.04
2017-04-10T13:11:10.798Z,8.71
2017-04-10T13:12:10.481Z,8.42
2017-04-10T13:13:10.778Z,8.21
2017-04-10T13:14:10.759Z,7.84
2017-04-10T13:15:10.757Z,8.5
2017-04-10T13:16:10.746Z,9.2
2017-04-10T13:17:10.735Z,9.96
2017-04-10T13:18:10.724Z,9.89